Time,TemperatureF,DewpointF,PressureIn,WindDirection,WindDirectionDegrees,WindSpeedMPH,WindSpeedGustMPH,Humidity,HourlyPrecipIn,Conditions,Clouds,dailyrainin,SolarRadiationWatts/m^2,SoftwareType,DateUTC
2013-01-01 00:42:00,35.0,1.0,30.15,ENE,72,3.0,7.0,23,0.00,,,0.00,0.000000,,2013-01-01 08:42:00,
2013-01-01 00:53:00,35.0,1.0,30.15,ENE,72,3.0,7.0,23,0.00,,,0.00,0.000000,,2013-01-01 08:53:00,
2013-01-01 01:32:00,34.0,9.0,30.14,South,176,9.0,12.0,35,0.00,,,0.00,0.000000,,2013-01-01 09:32:00,
2013-01-01 02:33:00,36.0,24.0,30.13,South,189,6.0,16.0,61,0.00,,,0.00,0.000000,,2013-01-01 10:33:00,
2013-01-01 02:43:00,36.0,24.0,30.13,South,189,6.0,16.0,61,0.00,,,0.00,0.000000,,2013-01-01 10:43:00,
2013-01-01 02:52:00,36.0,24.0,30.13,South,189,6.0,16.0,61,0.00,,,0.00,0.000000,,2013-01-01 10:52:00,
2013-01-01 03:02:00,36.0,24.0,30.13,South,189,6.0,16.0,61,0.00,,,0.00,0.000000,,2013-01-01 11:02:00,
2013-01-01 03:12:00,36.0,24.0,30.13,South,189,6.0,16.0,61,0.00,,,0.00,0.000000,,2013-01-01 11:12:00,
2013-01-01 03:33:00,32.0,31.0,30.14,SW,228,10.0,14.0,96,0.00,,,-99.99,0.000000,,2013-01-01 11:33:00,
2013-01-01 03:43:00,32.0,31.0,30.14,SW,228,10.0,14.0,96,0.00,,,-99.99,0.000000,,2013-01-01 11:43:00,
2013-01-01 03:53:00,32.0,31.0,30.14,SW,228,10.0,14.0,96,0.00,,,-99.99,0.000000,,2013-01-01 11:53:00,
2013-01-01 04:02:00,32.0,31.0,30.14,SW,228,10.0,14.0,96,0.00,,,-99.99,0.000000,,2013-01-01 12:02:00,
2013-01-01 04:12:00,32.0,31.0,30.14,SW,228,10.0,14.0,96,0.00,,,-99.99,0.000000,,2013-01-01 12:12:00,
2013-01-01 04:43:00,32.0,32.0,30.13,WNW,283,6.0,23.0,98,0.00,,,0.00,0.000000,,2013-01-01 12:43:00,
2013-01-01 04:53:00,32.0,32.0,30.13,WNW,283,6.0,23.0,98,0.00,,,0.00,0.000000,,2013-01-01 12:53:00,
2013-01-01 05:02:00,32.0,32.0,30.13,WNW,283,6.0,23.0,98,0.00,,,0.00,0.000000,,2013-01-01 13:02:00,
2013-01-01 05:12:00,32.0,32.0,30.13,WNW,283,6.0,23.0,98,0.00,,,0.00,0.000000,,2013-01-01 13:12:00,
2013-01-01 05:33:00,32.0,32.0,30.13,NW,308,9.0,17.0,99,0.00,,,0.00,0.000000,,2013-01-01 13:33:00,
2013-01-01 05:43:00,32.0,32.0,30.13,NW,308,9.0,17.0,99,0.00,,,0.00,0.000000,,2013-01-01 13:43:00,
2013-01-01 05:52:00,32.0,32.0,30.13,NW,308,9.0,17.0,99,0.00,,,0.00,0.000000,,2013-01-01 13:52:00,
2013-01-01 06:02:00,32.0,32.0,30.13,NW,308,9.0,17.0,99,0.00,,,0.00,0.000000,,2013-01-01 14:02:00,
2013-01-01 06:12:00,32.0,32.0,30.13,NW,308,9.0,17.0,99,0.00,,,0.00,0.000000,,2013-01-01 14:12:00,
2013-01-01 06:43:00,31.0,31.0,30.12,NNE,12,9.0,16.0,99,0.00,,,0.00,0.000000,,2013-01-01 14:43:00,
2013-01-01 06:53:00,31.0,31.0,30.12,NNE,12,9.0,16.0,99,0.00,,,0.00,0.000000,,2013-01-01 14:53:00,
2013-01-01 07:02:00,31.0,31.0,30.12,NNE,12,9.0,16.0,99,0.00,,,0.00,0.000000,,2013-01-01 15:02:00,
2013-01-01 07:12:00,31.0,31.0,30.12,NNE,12,9.0,16.0,99,0.00,,,0.00,0.000000,,2013-01-01 15:12:00,
2013-01-01 07:33:00,30.0,29.0,30.12,NNE,30,14.0,17.0,95,0.00,,,0.00,0.000000,,2013-01-01 15:33:00,
2013-01-01 07:43:00,30.0,29.0,30.12,NNE,30,14.0,17.0,95,0.00,,,0.00,0.000000,,2013-01-01 15:43:00,
2013-01-01 07:53:00,30.0,29.0,30.12,NNE,30,14.0,17.0,95,0.00,,,0.00,0.000000,,2013-01-01 15:53:00,
2013-01-01 08:02:00,30.0,29.0,30.12,NNE,30,14.0,17.0,95,0.00,,,0.00,0.000000,,2013-01-01 16:02:00,
2013-01-01 08:12:00,30.0,29.0,30.12,NNE,30,14.0,17.0,95,0.00,,,0.00,0.000000,,2013-01-01 16:12:00,
2013-01-01 08:33:00,32.0,29.0,30.12,NNE,32,11.0,21.0,87,0.00,,,0.00,0.000000,,2013-01-01 16:33:00,
2013-01-01 08:43:00,32.0,29.0,30.12,NNE,32,11.0,21.0,87,0.00,,,0.00,0.000000,,2013-01-01 16:43:00,
2013-01-01 08:53:00,32.0,29.0,30.12,NNE,32,11.0,21.0,87,0.00,,,0.00,0.000000,,2013-01-01 16:53:00,
2013-01-01 09:02:00,32.0,29.0,30.12,NNE,32,11.0,21.0,87,0.00,,,0.00,0.000000,,2013-01-01 17:02:00,
2013-01-01 09:12:00,32.0,29.0,30.12,NNE,32,11.0,21.0,87,0.00,,,0.00,0.000000,,2013-01-01 17:12:00,
2013-01-01 09:33:00,29.0,28.0,30.14,North,5,8.0,18.0,96,0.00,,,0.00,20.000000,,2013-01-01 17:33:00,
2013-01-01 09:43:00,29.0,28.0,30.14,North,5,8.0,18.0,96,0.00,,,0.00,20.000000,,2013-01-01 17:43:00,
2013-01-01 09:53:00,29.0,28.0,30.14,North,5,8.0,18.0,96,0.00,,,0.00,20.000000,,2013-01-01 17:53:00,
2013-01-01 10:03:00,29.0,28.0,30.14,North,5,8.0,18.0,96,0.00,,,0.00,20.000000,,2013-01-01 18:03:00,
2013-01-01 10:12:00,29.0,28.0,30.14,North,5,8.0,18.0,96,0.00,,,0.00,20.000000,,2013-01-01 18:12:00,
2013-01-01 10:33:00,32.0,29.0,30.15,NNE,16,11.0,18.0,87,0.00,,,0.00,180.000000,,2013-01-01 18:33:00,
2013-01-01 10:43:00,32.0,29.0,30.15,NNE,16,11.0,18.0,87,0.00,,,0.00,180.000000,,2013-01-01 18:43:00,
2013-01-01 10:53:00,32.0,29.0,30.15,NNE,16,11.0,18.0,87,0.00,,,0.00,180.000000,,2013-01-01 18:53:00,
2013-01-01 11:02:00,32.0,29.0,30.15,NNE,16,11.0,18.0,87,0.00,,,0.00,180.000000,,2013-01-01 19:02:00,
2013-01-01 11:11:00,32.0,29.0,30.15,NNE,16,11.0,18.0,87,0.00,,,0.00,180.000000,,2013-01-01 19:11:00,
2013-01-01 11:33:00,32.0,30.0,30.16,NE,53,11.0,15.0,92,0.00,,,0.00,361.000000,,2013-01-01 19:33:00,
2013-01-01 11:43:00,32.0,30.0,30.16,NE,53,11.0,15.0,92,0.00,,,0.00,361.000000,,2013-01-01 19:43:00,
2013-01-01 11:52:00,32.0,30.0,30.16,NE,53,11.0,15.0,92,0.00,,,0.00,361.000000,,2013-01-01 19:52:00,
2013-01-01 12:02:00,32.0,30.0,30.16,NE,53,11.0,15.0,92,0.00,,,0.00,361.000000,,2013-01-01 20:02:00,
2013-01-01 12:12:00,32.0,30.0,30.16,NE,53,11.0,15.0,92,0.00,,,0.00,361.000000,,2013-01-01 20:12:00,
2013-01-01 12:42:00,30.0,29.0,30.14,NE,56,6.0,14.0,98,0.00,,,0.00,488.000000,,2013-01-01 20:42:00,
2013-01-01 12:53:00,30.0,29.0,30.14,NE,56,6.0,14.0,98,0.00,,,0.00,488.000000,,2013-01-01 20:53:00,
2013-01-01 13:03:00,30.0,29.0,30.14,NE,56,6.0,14.0,98,0.00,,,0.00,488.000000,,2013-01-01 21:03:00,
2013-01-01 13:12:00,30.0,29.0,30.14,NE,56,6.0,14.0,98,0.00,,,0.00,488.000000,,2013-01-01 21:12:00,
2013-01-01 13:33:00,30.0,29.0,30.13,North,2,17.0,27.0,98,0.00,,,0.00,460.000000,,2013-01-01 21:33:00,
2013-01-01 13:42:00,30.0,29.0,30.13,North,2,17.0,27.0,98,0.00,,,0.00,460.000000,,2013-01-01 21:42:00,
2013-01-01 13:53:00,30.0,29.0,30.13,North,2,17.0,27.0,98,0.00,,,0.00,460.000000,,2013-01-01 21:53:00,
2013-01-01 14:02:00,30.0,29.0,30.13,North,2,17.0,27.0,98,0.00,,,0.00,460.000000,,2013-01-01 22:02:00,
2013-01-01 14:12:00,30.0,29.0,30.13,North,2,17.0,27.0,98,0.00,,,0.00,460.000000,,2013-01-01 22:12:00,
2013-01-01 14:33:00,30.0,29.0,30.13,North,9,20.0,27.0,96,0.00,,,0.00,392.000000,,2013-01-01 22:33:00,
2013-01-01 14:43:00,30.0,29.0,30.13,North,9,20.0,27.0,96,0.00,,,0.00,392.000000,,2013-01-01 22:43:00,
2013-01-01 14:52:00,30.0,29.0,30.13,North,9,20.0,27.0,96,0.00,,,0.00,392.000000,,2013-01-01 22:52:00,
2013-01-01 15:02:00,30.0,29.0,30.13,North,9,20.0,27.0,96,0.00,,,0.00,392.000000,,2013-01-01 23:02:00,
2013-01-01 15:12:00,30.0,29.0,30.13,North,9,20.0,27.0,96,0.00,,,0.00,392.000000,,2013-01-01 23:12:00,
2013-01-01 15:33:00,32.0,29.0,30.13,NNE,17,16.0,29.0,88,0.00,,,0.00,506.000000,,2013-01-01 23:33:00,
2013-01-01 15:42:00,32.0,29.0,30.13,NNE,17,16.0,29.0,88,0.00,,,0.00,506.000000,,2013-01-01 23:42:00,
2013-01-01 15:52:00,32.0,29.0,30.13,NNE,17,16.0,29.0,88,0.00,,,0.00,506.000000,,2013-01-01 23:52:00,
2013-01-01 16:02:00,32.0,29.0,30.13,NNE,17,16.0,29.0,88,0.00,,,0.00,506.000000,,2013-01-02 00:02:00,
2013-01-01 16:12:00,32.0,29.0,30.13,NNE,17,16.0,29.0,88,0.00,,,0.00,506.000000,,2013-01-02 00:12:00,
2013-01-01 16:32:00,32.0,28.0,30.13,North,4,16.0,26.0,85,0.00,,,0.00,404.000000,,2013-01-02 00:32:00,
2013-01-01 16:43:00,32.0,28.0,30.13,North,4,16.0,26.0,85,0.00,,,0.00,404.000000,,2013-01-02 00:43:00,
2013-01-01 16:52:00,32.0,28.0,30.13,North,4,16.0,26.0,85,0.00,,,0.00,404.000000,,2013-01-02 00:52:00,
2013-01-01 17:02:00,32.0,28.0,30.13,North,4,16.0,26.0,85,0.00,,,0.00,404.000000,,2013-01-02 01:02:00,
2013-01-01 17:11:00,32.0,28.0,30.13,North,4,16.0,26.0,85,0.00,,,0.00,404.000000,,2013-01-02 01:11:00,
2013-01-01 17:42:00,34.0,27.0,30.12,North,358,19.0,25.0,74,0.00,,,0.00,253.000000,,2013-01-02 01:42:00,
2013-01-01 17:52:00,34.0,27.0,30.12,North,358,19.0,25.0,74,0.00,,,0.00,253.000000,,2013-01-02 01:52:00,
2013-01-01 18:02:00,34.0,27.0,30.12,North,358,19.0,25.0,74,0.00,,,0.00,253.000000,,2013-01-02 02:02:00,
2013-01-01 18:12:00,34.0,27.0,30.12,North,358,19.0,25.0,74,0.00,,,0.00,253.000000,,2013-01-02 02:12:00,
2013-01-01 18:32:00,34.0,21.0,30.13,NNE,19,17.0,24.0,58,0.00,,,-99.99,75.000000,,2013-01-02 02:32:00,
2013-01-01 18:42:00,34.0,21.0,30.13,NNE,19,17.0,24.0,58,0.00,,,-99.99,75.000000,,2013-01-02 02:42:00,
2013-01-01 18:53:00,34.0,21.0,30.13,NNE,19,17.0,24.0,58,0.00,,,-99.99,75.000000,,2013-01-02 02:53:00,
2013-01-01 19:02:00,34.0,21.0,30.13,NNE,19,17.0,24.0,58,0.00,,,-99.99,75.000000,,2013-01-02 03:02:00,
2013-01-01 19:11:00,34.0,21.0,30.13,NNE,19,17.0,24.0,58,0.00,,,-99.99,75.000000,,2013-01-02 03:11:00,
2013-01-01 19:42:00,36.0,8.0,30.14,NNE,13,20.0,24.0,31,0.00,,,0.00,0.000000,,2013-01-02 03:42:00,
2013-01-01 19:53:00,36.0,8.0,30.14,NNE,13,20.0,24.0,31,0.00,,,0.00,0.000000,,2013-01-02 03:53:00,
2013-01-01 20:32:00,35.0,12.0,30.16,North,5,22.0,31.0,38,0.00,,,0.00,0.000000,,2013-01-02 04:32:00,
2013-01-01 20:42:00,35.0,12.0,30.16,North,5,22.0,31.0,38,0.00,,,0.00,0.000000,,2013-01-02 04:42:00,
2013-01-01 20:52:00,35.0,12.0,30.16,North,5,22.0,31.0,38,0.00,,,0.00,0.000000,,2013-01-02 04:52:00,
2013-01-01 21:03:00,35.0,12.0,30.16,North,5,22.0,31.0,38,0.00,,,0.00,0.000000,,2013-01-02 05:03:00,
2013-01-01 21:12:00,35.0,12.0,30.16,North,5,22.0,31.0,38,0.00,,,0.00,0.000000,,2013-01-02 05:12:00,
2013-01-01 21:43:00,37.0,18.0,30.17,North,350,21.0,27.0,46,0.00,,,0.00,0.000000,,2013-01-02 05:43:00,
2013-01-01 21:53:00,37.0,18.0,30.17,North,350,21.0,27.0,46,0.00,,,0.00,0.000000,,2013-01-02 05:53:00,
2013-01-01 22:02:00,37.0,18.0,30.17,North,350,21.0,27.0,46,0.00,,,0.00,0.000000,,2013-01-02 06:02:00,
2013-01-01 22:11:00,37.0,18.0,30.17,North,350,21.0,27.0,46,0.00,,,0.00,0.000000,,2013-01-02 06:11:00,
2013-01-01 22:32:00,38.0,18.0,30.18,North,1,18.0,25.0,44,0.00,,,0.00,0.000000,,2013-01-02 06:32:00,
2013-01-01 22:42:00,38.0,18.0,30.18,North,1,18.0,25.0,44,0.00,,,0.00,0.000000,,2013-01-02 06:42:00,
2013-01-01 22:52:00,38.0,18.0,30.18,North,1,18.0,25.0,44,0.00,,,0.00,0.000000,,2013-01-02 06:52:00,
2013-01-01 23:02:00,38.0,18.0,30.18,North,1,18.0,25.0,44,0.00,,,0.00,0.000000,,2013-01-02 07:02:00,
2013-01-01 23:12:00,38.0,18.0,30.18,North,1,18.0,25.0,44,0.00,,,0.00,0.000000,,2013-01-02 07:12:00,
2013-01-01 23:32:00,43.0,2.0,30.18,NNW,348,11.0,22.0,18,0.00,,,0.00,0.000000,,2013-01-02 07:32:00,